Rollingen, Luxembourg
Current Conditions -  °F | °C
As of 8:50 PM on Sunday 21 Dec 2014 (Local Time) from ELLX Reporting Station
Broken Clouds Broken Clouds  
Wind Chill: 32°   Ceiling: 1500
Heat Index: 41°   Visibility: 6mi
Dew Point: 39°   Wind: 18mph
Humidity: 93%   Direction: 240°WSW
Pressure: 30.39"   Gusts: NA
Location:  49.74°N, 6.11°E
Report Text: ELLX 211950Z 24016KT 210V270 9999 SCT010 BKN015 05/04 Q1029 NOSIG
Loading
Personal Weather Stations






























Interactive Weather Map New forecast layout! Learn more

10-Day Weather Forecast

Advertisements
Track Severe Weather on mobile